Michigan Logo

Waterford, MI Single Family Real Estate Listings

167 Total Real Estate Listings * Click on table heading to sort
Date Posted Property Type Style Address Price Living Area Lot Size Price/Sq Ft.
2019-05-24 Single Family Bungalow 4621 Forest Ave Avenue Waterford, MI 48328 $409,000 1,783 sq. ft. 10,019 sq. ft. $229
2019-05-24 Single Family Bungalow 1750 Eason Road Waterford, MI 48328 $359,000 1,248 sq. ft. 5,663 sq. ft. $288
2019-05-24 Single Family Ranch 3015 Golfhill Drive Waterford, MI 48329 $219,900 1,725 sq. ft. 14,375 sq. ft. $127
2019-05-24 Single Family Bungalow 3704 Lincolnshire Road Waterford, MI 48328 $195,000 1,538 sq. ft. 18,295 sq. ft. $127
2019-05-24 Single Family Colonial 3659 Brookdale Lane Waterford, MI 48328 $199,900 1,401 sq. ft. 26,136 sq. ft. $143
2019-05-24 Single Family Colonial 7067 Villa Drive Waterford, MI 48327 $199,000 1,202 sq. ft. 6,970 sq. ft. $166
2019-05-24 Single Family Ranch 5109 Reymont Road Waterford, MI 48327 $189,900 1,050 sq. ft. 12,197 sq. ft. $181
2019-05-24 Single Family Ranch 78 Leota Boulevard Waterford, MI 48327 $189,900 1,528 sq. ft. 13,939 sq. ft. $124
2019-05-24 Single Family Modular Home 3048 Mccormick Drive Waterford, MI 48328 $117,000 1,456 sq. ft. 21,780 sq. ft. $80
2019-05-23 Single Family Colonial 2668 Bonita Dr Waterford, MI 48329 $229,900 1,480 sq. ft. 8,712 sq. ft. $155
2019-05-23 Single Family 2720 Merelus Drive Waterford, MI 48329 $239,900 1,548 sq. ft. 15,246 sq. ft. $155
2019-05-23 Single Family Colonial 4090 Highview Court Waterford, MI 48329 $250,000 1,454 sq. ft. 10,890 sq. ft. $172
2019-05-23 Single Family Ranch 2617 Walton Boulevard Waterford, MI 48329 $179,900 1,383 sq. ft. 9,583 sq. ft. $130
2019-05-23 Single Family Bungalow 1068 La Salle Avenue Waterford, MI 48328 $174,900 1,430 sq. ft. 7,841 sq. ft. $122
2019-05-23 Single Family Ranch 6519 Saline Drive Waterford, MI 48329 $145,000 960 sq. ft. 6,970 sq. ft. $151
2019-05-23 Single Family Ranch 2345 Maplecrest Drive Waterford, MI 48327 $125,000 988 sq. ft. 10,019 sq. ft. $127
2019-05-23 Single Family Ranch 281 Williams Lake Road Waterford, MI 48327 $116,900 750 sq. ft. 6,970 sq. ft. $156
2019-05-23 Single Family Contemporary 6664 Longworth Drive Waterford, MI 48329 $550,000 2,060 sq. ft. 7,405 sq. ft. $267
2019-05-23 Single Family Ranch 7390 Maceday Lake Road Waterford, MI 48329 $599,900 2,162 sq. ft. 15,246 sq. ft. $277
2019-05-23 Single Family Ranch 1315 Choctaw Place Waterford, MI 48327 $249,900 1,560 sq. ft. 13,939 sq. ft. $160
2019-05-23 Single Family Colonial 3465 Norris Waterford, MI 48329 $245,000 2,073 sq. ft. 34,848 sq. ft. $118
2019-05-23 Single Family Ranch 521 Candlestick Drive Waterford, MI 48328 $219,999 1,800 sq. ft. 11,761 sq. ft. $122
2019-05-23 Single Family Ranch 1158 Cass Lake Road Waterford, MI 48328 $170,000 1,050 sq. ft. 14,810 sq. ft. $162
2019-05-23 Single Family Ranch 5190 Elizabeth Lake Road Waterford, MI 48327 $125,000 872 sq. ft. 31,799 sq. ft. $143
2019-05-23 Single Family Ranch 6754 Mather Street Waterford, MI 48327 $169,900 1,956 sq. ft. 43,124 sq. ft. $87
2019-05-22 Single Family Colonial 350 Lamothe Waterford, MI 48327 $279,900 1,325 sq. ft. 13,068 sq. ft. $211
2019-05-22 Single Family Colonial 6839 Brightwood Court Waterford, MI 48327 $349,000 2,992 sq. ft. 9,583 sq. ft. $117
2019-05-22 Single Family Contemporary 1170 Beachland Boulevard Waterford, MI 48328 $263,000 1,622 sq. ft. 9,148 sq. ft. $162
2019-05-22 Single Family Ranch 1063 Lakeview Street Waterford, MI 48328 $129,999 1,011 sq. ft. 5,663 sq. ft. $129
2019-05-21 Single Family Ranch 4197 Windiate Park Drive Waterford, MI 48329 $650,000 1,976 sq. ft. 8,276 sq. ft. $329
2019-05-21 Single Family Bungalow 2950 Huron Street Waterford, MI 48328 $219,000 2,560 sq. ft. 14,375 sq. ft. $86
2019-05-21 Single Family Colonial 1158 Meadowview Drive Waterford, MI 48327 $234,900 1,736 sq. ft. 10,019 sq. ft. $135
2019-05-21 Single Family Ranch 2129 Highfield Road Waterford, MI 48329 $234,900 1,352 sq. ft. 12,197 sq. ft. $174
2019-05-20 Single Family Colonial 7188 Mather Street Street Waterford, MI 48327 $248,000 2,014 sq. ft. 14,810 sq. ft. $123
2019-05-20 Single Family Colonial 4735 Elizabeth Lake Road Waterford, MI 48327 $194,000 1,400 sq. ft. 6,098 sq. ft. $139
2019-05-20 Single Family Ranch 3024 Saint Jude Drive Waterford, MI 48329 $219,000 1,473 sq. ft. 13,504 sq. ft. $149
2019-05-20 Single Family Colonial 214 Oshawa Circle Waterford, MI 48328 $225,000 1,588 sq. ft. 13,068 sq. ft. $142
2019-05-20 Single Family Ranch 2480 Georgeland Drive Waterford, MI 48329 $184,900 1,172 sq. ft. 13,939 sq. ft. $158
2019-05-20 Single Family Bungalow 1190 Bangor Road Waterford, MI 48328 $129,900 814 sq. ft. 5,227 sq. ft. $160
2019-05-19 Single Family Ranch 2969 Shawnee Lane Waterford, MI 48329 $269,999 1,886 sq. ft. 13,939 sq. ft. $143
2019-05-18 Single Family Colonial 7290 Williams Lake Road Waterford, MI 48329 $670,000 3,444 sq. ft. 16,553 sq. ft. $195
2019-05-18 Single Family Contemporary 5444 Fleet Avenue Waterford, MI 48327 $395,000 3,701 sq. ft. 15,682 sq. ft. $107
2019-05-18 Single Family Ranch 2030 Oakdale Drive Waterford, MI 48329 $250,000 1,572 sq. ft. 16,553 sq. ft. $159
2019-05-18 Single Family Ranch 324 Tilmor Drive Waterford, MI 48328 $190,000 1,521 sq. ft. 12,632 sq. ft. $125
2019-05-18 Single Family Ranch 3904 Cresthaven Dr Waterford, MI 48328 $167,000 1,296 sq. ft. 6,970 sq. ft. $129
2019-05-18 Single Family 289 Williams Lake Road Waterford, MI 48327 $168,000 1,392 sq. ft. 6,970 sq. ft. $121
2019-05-18 Single Family Bungalow 4140 Lanette Drive Waterford, MI 48328 $179,900 696 sq. ft. 7,405 sq. ft. $258
2019-05-18 Single Family Ranch 6425 Simmons Road Waterford, MI 48327 $157,000 1,200 sq. ft. 10,890 sq. ft. $131
2019-05-18 Single Family Ranch 5018 Joangay Boulevard Waterford, MI 48327 $179,000 1,246 sq. ft. 11,326 sq. ft. $144
2019-05-18 Single Family Ranch 4968 Shoreline Boulevard Waterford, MI 48329 $189,900 1,626 sq. ft. 13,504 sq. ft. $117
2019-05-18 Single Family Ranch 2740 Voorheis Road Waterford, MI 48328 $169,900 1,040 sq. ft. 9,148 sq. ft. $163
2019-05-18 Single Family Ranch 3486 Watkins Lake Road Waterford, MI 48328 $139,900 830 sq. ft. $169
2019-05-16 Single Family Bungalow 3445 Whitfield Drive Waterford, MI 48329 $679,000 2,289 sq. ft. 13,939 sq. ft. $297
2019-05-16 Single Family Colonial 308 Beverly Island Drive Waterford, MI 48328 $549,900 3,014 sq. ft. 13,504 sq. ft. $182
2019-05-16 Single Family Colonial 3384 Shaddick Road Waterford, MI 48328 $207,000 1,570 sq. ft. 9,583 sq. ft. $132
2019-05-16 Single Family Colonial 7040 Wade Street Waterford, MI 48327 $269,900 1,876 sq. ft. 11,761 sq. ft. $144
2019-05-16 Single Family Ranch 362 Dover Road Waterford, MI 48328 $154,900 1,070 sq. ft. 6,970 sq. ft. $145
2019-05-16 Single Family Ranch 6615 Windiate Road Waterford, MI 48329 $184,900 1,188 sq. ft. 7,405 sq. ft. $156
2019-05-16 Single Family Ranch 1232 Heyden Avenue Waterford, MI 48328 $199,900 1,625 sq. ft. 13,939 sq. ft. $123
2019-05-16 Single Family Ranch 124 Waterly Waterford, MI 48328 $78,400 731 sq. ft. 6,970 sq. ft. $107
2019-05-13 Single Family Colonial 4436 Island View Dr Waterford, MI 48328 $424,900 2,212 sq. ft. 11,761 sq. ft. $192
2019-05-13 Single Family Contemporary; Ranch 5065 Pheasant Road Waterford, MI 48327 $229,900 1,200 sq. ft. $192
2019-05-13 Single Family 3103 Schoolhouse Drive Waterford, MI 48329 $204,900 1,873 sq. ft. 14,375 sq. ft. $109
2019-05-13 Single Family Colonial 2924 Birchwood Drive Waterford, MI 48329 $249,900 1,637 sq. ft. 10,454 sq. ft. $153
2019-05-13 Single Family Ranch 4041 Cambrook Lane Waterford, MI 48329 $199,500 1,234 sq. ft. 13,504 sq. ft. $162
2019-05-11 Single Family Contemporary 285 Leota Boulevard Waterford, MI 48327 $899,000 2,982 sq. ft. 57,935 sq. ft. $301
2019-05-11 Single Family Colonial 2350 Carlos Drive Waterford, MI 48327 $599,900 2,450 sq. ft. 20,473 sq. ft. $245
2019-05-11 Single Family Colonial 173 Leota Boulevard Waterford, MI 48327 $875,000 3,970 sq. ft. 13,068 sq. ft. $220
2019-05-11 Single Family 723 Otter Avenue Waterford, MI 48328 $315,000 2,088 sq. ft. 4,792 sq. ft. $151
2019-05-11 Single Family Colonial 2908 Lola Court Waterford, MI 48329 $499,000 3,249 sq. ft. 16,988 sq. ft. $154
2019-05-11 Single Family Colonial 4795 Elizabeth Lake Road Waterford, MI 48327 $499,900 2,637 sq. ft. 28,750 sq. ft. $190
2019-05-11 Single Family Colonial 4123 Oceana Avenue Waterford, MI 48328 $200,000 1,456 sq. ft. 7,405 sq. ft. $137
2019-05-11 Single Family Colonial 4833 Parkridge Drive Waterford, MI 48329 $249,900 2,012 sq. ft. 8,712 sq. ft. $124
2019-05-11 Single Family Ranch 3444 Airport Road Waterford, MI 48329 $199,999 1,316 sq. ft. 15,682 sq. ft. $152
2019-05-11 Single Family Ranch 3464 Hanford Waterford, MI 48329 $150,000 1,074 sq. ft. 14,810 sq. ft. $140
2019-05-09 Single Family Colonial 4758 Parkridge Drive Waterford, MI 48329 $315,000 2,003 sq. ft. 9,583 sq. ft. $157
2019-05-09 Single Family Colonial 3832 Mapleleaf Road Waterford, MI 48328 $205,000 2,700 sq. ft. 6,534 sq. ft. $76
2019-05-09 Single Family Ranch 2241 Denby Drive Waterford, MI 48329 $219,900 1,484 sq. ft. 20,473 sq. ft. $148
2019-05-09 Single Family Ranch 696 Sheryl Drive Waterford, MI 48328 $159,900 1,043 sq. ft. 11,761 sq. ft. $153
2019-05-09 Single Family Colonial 3125 Megan Drive Waterford, MI 48328 $129,900 1,094 sq. ft. $119
2019-05-09 Single Family Ranch 115 Tilden Avenue Waterford, MI 48328 $115,000 966 sq. ft. 8,276 sq. ft. $119
2019-05-07 Single Family Colonial 4825 Motorway Drive Waterford, MI 48328 $725,000 3,240 sq. ft. 13,068 sq. ft. $224
2019-05-07 Single Family Victorian 5967 Andersonville Road Waterford, MI 48329 $255,000 1,903 sq. ft. 43,560 sq. ft. $134
2019-05-07 Single Family Contemporary; Ranch 5782 Artesian Drive Waterford, MI 48327 $269,666 1,500 sq. ft. $180
2019-05-07 Single Family Ranch 4707 Ross Drive Waterford, MI 48328 $179,900 1,256 sq. ft. 13,504 sq. ft. $143
2019-05-07 Single Family Ranch 5724 Lochleven Drive Waterford, MI 48327 $159,900 1,075 sq. ft. 12,632 sq. ft. $149
2019-05-06 Single Family Ranch 3175 Coventry Drive Waterford, MI 48329 $175,000 900 sq. ft. 6,534 sq. ft. $194
2019-05-06 Single Family Ranch 5160 Hatchery Road Waterford, MI 48329 $142,900 875 sq. ft. $163
2019-05-06 Single Family Ranch 6320 Williams Lake Road Waterford, MI 48329 $130,000 911 sq. ft. 9,148 sq. ft. $143
2019-05-04 Single Family Colonial; Contemporary 3184 Pine Tree Crt Course Waterford, MI 48329 $850,000 4,464 sq. ft. 13,068 sq. ft. $190
2019-05-04 Single Family Contemporary 3977 Lakewood Drive Waterford, MI 48329 $610,000 2,641 sq. ft. 11,761 sq. ft. $231
2019-05-04 Single Family Colonial 571 Cristy Ave Waterford, MI 48328 $214,900 1,679 sq. ft. 40,511 sq. ft. $128
2019-05-04 Single Family Contemporary 1021 Pelham Boulevard Waterford, MI 48328 $229,900 1,460 sq. ft. 13,939 sq. ft. $157
2019-05-04 Single Family Ranch 4920 Lake Point Drive Waterford, MI 48329 $124,900 1,282 sq. ft. $97
2019-05-03 Single Family Contemporary 2673 Cove Bay Drive Waterford, MI 48329 $799,000 3,683 sq. ft. 13,939 sq. ft. $217
2019-05-03 Single Family Ranch 5041 Libcrest Drive Waterford, MI 48327 $212,900 1,132 sq. ft. 16,988 sq. ft. $188
2019-05-03 Single Family Colonial 3421 Walton Boulevard Waterford, MI 48329 $279,000 2,368 sq. ft. 17,424 sq. ft. $118
2019-05-03 Single Family Ranch 6140 Lindsay Drive Waterford, MI 48329 $143,900 1,213 sq. ft. 16,988 sq. ft. $119
2019-04-30 Single Family Ranch 6964 Terrell Street Waterford, MI 48329 $559,000 2,032 sq. ft. 13,504 sq. ft. $275
2019-04-30 Single Family Tudor 2411 Walton Boulevard Waterford, MI 48329 $699,000 2,382 sq. ft. 39,204 sq. ft. $293
2019-04-30 Single Family Contemporary 2689 Caterham Drive Waterford, MI 48329 $199,900 1,465 sq. ft. $136
2019-04-30 Single Family Ranch 5738 Lochleven Waterford, MI 48327 $199,000 1,735 sq. ft. 11,326 sq. ft. $115
2019-04-26 Single Family 5462 Crescent Road Waterford, MI 48327 $219,900 1,400 sq. ft. 32,234 sq. ft. $157
2019-04-25 Single Family 4059 Silver Birch Dr Waterford, MI 48239 $184,900 1,237 sq. ft. $149
2019-04-23 Single Family 1180 Shady Lane Waterford, MI 48327 $749,000 2,562 sq. ft. 60,548 sq. ft. $292
2019-04-22 Single Family Contemporary 4465 Forest Avenue Waterford, MI 48328 $725,000 3,143 sq. ft. 5,663 sq. ft. $231
2019-04-21 Single Family Ranch 2876 Adlake Drive Waterford, MI 48329 $380,000 1,728 sq. ft. 12,632 sq. ft. $220
2019-04-16 Single Family Ranch 1220 Scott Lake Rd Waterford, MI 48328 $165,000 2,100 sq. ft. $79
2019-04-15 Single Family Contemporary 324 Beverly Estates Drive Waterford, MI 48328 $494,900 2,007 sq. ft. $247
2019-04-15 Single Family Ranch 409 Hillcliff Drive Waterford, MI 48328 $199,900 1,176 sq. ft. 43,560 sq. ft. $170
2019-04-15 Single Family Contemporary 1204 Larch Pl Waterford, MI 48328 $499,000 2,739 sq. ft. 6,970 sq. ft. $182
2019-04-15 Single Family Colonial 3017 Lansdowne Road Waterford, MI 48329 $599,000 2,341 sq. ft. 14,375 sq. ft. $256
2019-04-12 Single Family Cape Cod 2971 Winton Road Waterford, MI 48328 $169,900 1,925 sq. ft. 9,583 sq. ft. $88
2019-04-11 Single Family Colonial; Contemporary 337 Beverly Estates Drive Waterford, MI 48328 $599,900 2,802 sq. ft. 9,148 sq. ft. $214
2019-04-09 Single Family Colonial 4265 Lakewood Drive Waterford, MI 48329 $615,000 2,834 sq. ft. 16,553 sq. ft. $217
2019-04-09 Single Family Colonial 1397 Rossdale Drive Waterford, MI 48328 $315,000 1,599 sq. ft. 3,049 sq. ft. $197
2019-04-08 Single Family Colonial 230 Highgate Avenue Waterford, MI 48327 $209,900 1,272 sq. ft. 10,019 sq. ft. $165
2019-04-08 Single Family Ranch 2528 Bonita Drive Waterford, MI 48329 $219,999 1,278 sq. ft. 8,712 sq. ft. $172
2019-04-05 Single Family Colonial 540 Grixdale Lane Waterford, MI 48328 $559,900 2,276 sq. ft. 9,148 sq. ft. $246
2019-04-04 Single Family Colonial 1030 Forest Bay Drive Waterford, MI 48328 $750,000 3,074 sq. ft. 12,632 sq. ft. $244
2019-04-04 Single Family Cape Cod 2455 Walton Boulevard Waterford, MI 48329 $425,000 1,300 sq. ft. 15,246 sq. ft. $327
2019-04-04 Single Family Colonial; Contemporary 1289 Forest Bay Drive Waterford, MI 48328 $1,490,000 7,252 sq. ft. 14,810 sq. ft. $205
2019-04-03 Single Family Colonial 5766 Savoy Drive Waterford, MI 48327 $232,000 1,555 sq. ft. 6,098 sq. ft. $149
2019-04-03 Single Family Cape Cod 7240 Sandy Beach Drive Waterford, MI 48329 $189,900 1,410 sq. ft. 9,583 sq. ft. $135
2019-04-01 Single Family Ranch 4133 Airport Road Waterford, MI 48329 $119,000 848 sq. ft. 12,632 sq. ft. $140
2019-04-01 Single Family Ranch 1079 Lakeview Street Waterford, MI 48328 $128,000 1,162 sq. ft. 5,663 sq. ft. $110
2019-03-27 Single Family Ranch 5913 Dwight Avenue Waterford, MI 48327 $139,000 1,468 sq. ft. 17,424 sq. ft. $95
2019-03-25 Single Family Ranch 318 Holmur Drive Waterford, MI 48327 $179,999 1,507 sq. ft. 9,583 sq. ft. $119
2019-03-22 Single Family Colonial 2654 Cherokee Hills Circle Waterford, MI 48328 $200,000 1,673 sq. ft. 8,276 sq. ft. $120
2019-03-19 Single Family Colonial 5058 Shoreline Boulevard Waterford, MI 48329 $249,000 2,144 sq. ft. 16,117 sq. ft. $116
2019-03-15 Single Family Historic 4193 Airport Road Waterford, MI 48329 $149,000 1,494 sq. ft. 17,424 sq. ft. $100
2019-03-14 Single Family Ranch 2863 Moosewood Drive Waterford, MI 48329 $309,900 1,550 sq. ft. $200
2019-03-13 Single Family Ranch 120 Pleasant Lake Drive Waterford, MI 48327 $219,900 1,587 sq. ft. 11,761 sq. ft. $139
2019-03-11 Single Family Colonial 1351 Beachland Boulevard Waterford, MI 48328 $294,900 1,550 sq. ft. $190
2019-03-08 Single Family Colonial 7783 Rampart Trail Waterford, MI 48327 $320,000 1,850 sq. ft. 12,197 sq. ft. $173
2019-03-07 Single Family Colonial 2680 Montebello Road Waterford, MI 48329 $227,900 1,926 sq. ft. 17,424 sq. ft. $118
2019-03-04 Single Family 125 Lansing Drive Waterford, MI 48328 $255,000 1,445 sq. ft. 15,246 sq. ft. $176
2019-03-01 Single Family Colonial 5038 Durnham Drive Waterford, MI 48327 $524,900 2,094 sq. ft. 8,276 sq. ft. $251
2019-02-27 Single Family Ranch 4109 Meyers Waterford, MI 48329 $359,900 1,365 sq. ft. 11,761 sq. ft. $264
2019-02-22 Single Family Ranch 7126 Hatchery Road Waterford, MI 48327 $599,000 830 sq. ft. 20,473 sq. ft. $722
2019-02-15 Single Family Colonial 3782 Covert Road Waterford, MI 48328 $749,900 3,665 sq. ft. 15,246 sq. ft. $205
2019-02-12 Single Family Colonial 7048 Wade Street Waterford, MI 48327 $272,900 1,934 sq. ft. 11,761 sq. ft. $141
2019-02-11 Single Family 2985 Shawnee Lane Waterford, MI 48329 $214,900 1,773 sq. ft. 13,068 sq. ft. $121
2019-02-07 Single Family Contemporary; Raised Ranch 3930 Lamont Drive Waterford, MI 48329 $374,900 2,040 sq. ft. 8,712 sq. ft. $184
2019-02-01 Single Family Ranch 6634 Williams Lake Road Waterford, MI 48329 $151,900 1,173 sq. ft. 11,326 sq. ft. $130
2019-01-25 Single Family Colonial 4856 Sherwell Drive Waterford, MI 48327 $799,900 3,352 sq. ft. 6,970 sq. ft. $239
2019-01-25 Single Family Colonial 4222 Rural Street Waterford, MI 48329 $349,900 4,308 sq. ft. 77,101 sq. ft. $81
2019-01-25 Single Family Ranch 2954 Shawnee Lane Waterford, MI 48329 $339,000 1,499 sq. ft. 14,375 sq. ft. $226
2019-01-25 Single Family Ranch 1400 Bamford Drive Waterford, MI 48328 $215,900 1,300 sq. ft. 13,068 sq. ft. $166
2019-01-25 Single Family Colonial 2824 Rowan Boulevard Waterford, MI 48329 $234,800 1,384 sq. ft. 4,356 sq. ft. $170
2019-01-25 Single Family Ranch 3991 Perkins Waterford, MI 48329 $94,900 1,073 sq. ft. 13,939 sq. ft. $88
2019-01-25 Single Family Ranch 2394 Silver Circle Waterford, MI 48328 $104,900 779 sq. ft. 4,792 sq. ft. $135
2019-01-24 Single Family Ranch 1080 Shady Lane Waterford, MI 48327 $199,900 1,260 sq. ft. 10,890 sq. ft. $159
2018-11-26 Single Family Colonial 6914 Fox Lane Waterford, MI 48327 $240,000 2,069 sq. ft. 8,276 sq. ft. $116
2018-10-25 Single Family Ranch 699 Winding Drive Waterford, MI 48328 $189,900 1,668 sq. ft. 6,098 sq. ft. $114
2018-10-17 Single Family Ranch Lot C New Clintonville Road Waterford, MI 48329 $510,990 1,985 sq. ft. 47,480 sq. ft. $257
2018-10-16 Single Family Colonial Lot A New Clintonville Road Waterford, MI 48329 $507,990 2,432 sq. ft. 52,272 sq. ft. $209
2018-10-10 Single Family Bungalow 3044 Barkman Drive Waterford, MI 48349 $169,900 1,491 sq. ft. $114
2018-09-12 Single Family Ranch 5345 Clinton River Drive Waterford, MI 48327 $248,000 1,568 sq. ft. 10,454 sq. ft. $158
2018-07-15 Single Family Colonial 2816 Moosewood Drive Waterford, MI 48329 $289,900 2,000 sq. ft. $145
2018-07-15 Single Family Ranch 2826 Moosewood Drive Waterford, MI 48329 $284,900 1,550 sq. ft. $184
2018-07-14 Single Family Ranch 217 Reymont Road Waterford, MI 48327 $244,900 1,192 sq. ft. 10,454 sq. ft. $205
2018-06-02 Single Family Ranch 3434 Airport Road Waterford, MI 48329 $174,900 1,564 sq. ft. 7,841 sq. ft. $112
2018-05-25 Single Family Ranch 2831 Barkman Drive Waterford, MI 48329 $475,000 2,000 sq. ft. 54,014 sq. ft. $238
2018-05-24 Single Family Ranch 497 Beverly Island Drive Waterford, MI 48328 $889,900 1,480 sq. ft. 43,996 sq. ft. $601
2018-05-06 Single Family Colonial; Contemporary 5010 Sherwell Drive Waterford, MI 48327 $1,749,000 5,137 sq. ft. 23,958 sq. ft. $340
2017-09-01 Single Family Contemporary 4562 Shore Street Waterford, MI 48328 $1,299,000 4,651 sq. ft. 22,651 sq. ft. $279